Puerto Plata, Dominican Republic
Current Conditions -  °F | °C
As of 6:00 PM on Sunday 23 Nov 2014 (Local Time) from MDPP Reporting Station
Scattered Clouds Scattered Clouds  
Wind Chill: 82°   Ceiling: Unl
Heat Index: 89°   Visibility: 6mi
Dew Point: 75°   Wind: 12mph
Humidity: 79%   Direction: 90°E
Pressure: 29.94"   Gusts: NA
Location:  19.8°N, 70.7°W
Report Text: MDPP 232200Z 09010KT 9999 SCT018 28/24 Q1014 NOSIG
Loading
Personal Weather Stations






























Interactive Weather Map New forecast layout! Learn more

10-Day Weather Forecast

Advertisements
Track Severe Weather on mobile